createdAt,value
2023-09-06T00:01:18.668Z,19.12
2023-09-06T00:03:51.068Z,19.37
2023-09-06T00:06:29.425Z,19.18
2023-09-06T00:09:01.726Z,19.14
2023-09-06T00:11:31.974Z,18.81
2023-09-06T00:14:04.407Z,18.93
2023-09-06T00:16:32.776Z,19.14
2023-09-06T00:19:04.675Z,18.77
2023-09-06T00:21:38.073Z,18.90
2023-09-06T00:24:07.323Z,18.90
2023-09-06T00:26:37.642Z,18.97
2023-09-06T00:29:07.683Z,18.45
2023-09-06T00:31:36.898Z,18.69
2023-09-06T00:34:08.400Z,18.90
2023-09-06T00:36:37.320Z,18.43
2023-09-06T00:39:07.011Z,18.58
2023-09-06T00:41:38.010Z,18.68
2023-09-06T00:44:07.132Z,18.75
2023-09-06T00:46:36.055Z,18.46
2023-09-06T00:49:10.923Z,18.36
2023-09-06T00:51:41.249Z,18.33
2023-09-06T00:54:13.032Z,18.51
2023-09-06T00:56:41.406Z,18.13
2023-09-06T00:59:15.476Z,18.10
2023-09-06T01:01:44.012Z,18.57
2023-09-06T01:04:13.932Z,18.58
2023-09-06T01:06:46.760Z,18.36
2023-09-06T01:09:21.107Z,18.42
2023-09-06T01:11:50.098Z,18.57
2023-09-06T01:14:22.882Z,18.42
2023-09-06T01:16:55.832Z,18.23
2023-09-06T01:19:34.679Z,17.98
2023-09-06T01:22:10.797Z,18.11
2023-09-06T01:24:42.022Z,18.10
2023-09-06T01:27:16.014Z,18.01
2023-09-06T01:29:45.334Z,17.60
2023-09-06T01:32:14.883Z,17.89
2023-09-06T01:34:43.923Z,17.67
2023-09-06T01:37:12.729Z,17.76
2023-09-06T01:39:42.307Z,17.99
2023-09-06T01:42:11.337Z,17.52
2023-09-06T01:44:43.604Z,17.81
2023-09-06T01:47:11.944Z,17.71
2023-09-06T01:49:40.453Z,18.00
2023-09-06T01:52:09.731Z,17.82
2023-09-06T01:54:39.126Z,17.01
2023-09-06T01:57:09.644Z,17.53
2023-09-06T01:59:41.567Z,17.59
2023-09-06T02:02:10.532Z,17.30
2023-09-06T02:04:42.282Z,17.61
2023-09-06T02:07:10.398Z,17.36
2023-09-06T02:09:41.071Z,17.67
2023-09-06T02:12:11.370Z,17.11
2023-09-06T02:14:39.334Z,17.33
2023-09-06T02:17:08.133Z,17.43
2023-09-06T02:19:36.734Z,17.52
2023-09-06T02:22:06.704Z,17.40
2023-09-06T02:24:35.348Z,17.50
2023-09-06T02:27:04.867Z,17.56
2023-09-06T02:29:36.724Z,17.63
2023-09-06T02:32:07.053Z,17.58
2023-09-06T02:34:36.905Z,17.46
2023-09-06T02:37:06.439Z,17.44
2023-09-06T02:39:39.946Z,17.63
2023-09-06T02:42:12.614Z,17.51
2023-09-06T02:44:43.450Z,17.28
2023-09-06T02:47:16.305Z,17.45
2023-09-06T02:49:44.937Z,17.70
2023-09-06T02:52:22.272Z,17.38
2023-09-06T02:54:54.422Z,17.59
2023-09-06T02:57:22.486Z,17.74
2023-09-06T02:59:53.204Z,17.38
2023-09-06T03:02:23.696Z,17.64
2023-09-06T03:04:56.377Z,17.54
2023-09-06T03:07:26.336Z,17.37
2023-09-06T03:09:54.736Z,17.78
2023-09-06T03:12:23.260Z,17.45
2023-09-06T03:14:56.903Z,17.47
2023-09-06T03:17:30.622Z,17.47
2023-09-06T03:20:01.133Z,17.10
2023-09-06T03:22:30.179Z,17.51
2023-09-06T03:24:58.433Z,17.40
2023-09-06T03:27:28.475Z,17.53
2023-09-06T03:29:59.399Z,17.34
2023-09-06T03:32:29.640Z,16.63
2023-09-06T03:34:59.050Z,17.28
2023-09-06T03:37:30.211Z,17.39
2023-09-06T03:39:58.227Z,17.45
2023-09-06T03:42:26.616Z,17.41
2023-09-06T03:44:54.858Z,17.36
2023-09-06T03:47:24.383Z,17.05
2023-09-06T03:49:53.578Z,17.24
2023-09-06T03:52:22.432Z,17.20
2023-09-06T03:54:52.114Z,17.05
2023-09-06T03:57:20.302Z,17.04
2023-09-06T03:59:48.473Z,16.89
2023-09-06T04:02:17.197Z,17.10
2023-09-06T04:04:47.140Z,16.95
2023-09-06T04:07:15.295Z,17.02
2023-09-06T04:09:43.954Z,16.83
2023-09-06T04:12:12.155Z,16.71
2023-09-06T04:14:45.233Z,16.89
2023-09-06T04:17:13.595Z,17.01
2023-09-06T04:19:42.192Z,17.07
2023-09-06T04:22:14.301Z,16.71
2023-09-06T04:24:44.210Z,16.98
2023-09-06T04:27:13.502Z,16.78
2023-09-06T04:29:43.524Z,17.09
2023-09-06T04:32:13.205Z,17.04
2023-09-06T04:34:41.413Z,16.84
2023-09-06T04:37:13.833Z,17.01
2023-09-06T04:39:45.226Z,17.00
2023-09-06T04:42:18.567Z,16.99
2023-09-06T04:44:46.544Z,16.75
2023-09-06T04:47:15.415Z,16.74
2023-09-06T04:49:47.085Z,17.14
2023-09-06T04:52:17.205Z,17.01
2023-09-06T04:54:49.254Z,17.11
2023-09-06T04:57:19.781Z,16.99
2023-09-06T04:59:49.896Z,17.05
2023-09-06T05:02:19.662Z,16.93
2023-09-06T05:04:49.961Z,16.99
2023-09-06T05:07:18.799Z,17.03
2023-09-06T05:09:58.488Z,17.03
2023-09-06T05:12:27.114Z,17.07
2023-09-06T05:14:55.864Z,17.08
2023-09-06T05:17:25.097Z,17.03
2023-09-06T05:19:54.807Z,17.00
2023-09-06T05:22:24.191Z,17.11
2023-09-06T05:25:08.313Z,17.17
2023-09-06T05:27:36.997Z,17.31
2023-09-06T05:30:06.548Z,17.27
2023-09-06T05:32:36.162Z,17.78
2023-09-06T05:35:06.790Z,17.56
2023-09-06T05:37:35.309Z,17.69
2023-09-06T05:40:09.654Z,17.64
2023-09-06T05:42:41.732Z,17.65
2023-09-06T05:45:14.712Z,17.99
2023-09-06T05:47:45.125Z,18.04
2023-09-06T05:50:18.864Z,18.11
2023-09-06T05:52:47.759Z,18.28
2023-09-06T05:55:18.503Z,18.33
2023-09-06T05:57:47.153Z,18.24
2023-09-06T06:00:17.555Z,18.45
2023-09-06T06:02:49.827Z,18.88
2023-09-06T06:05:22.818Z,18.93
2023-09-06T06:07:53.286Z,19.15
2023-09-06T06:10:24.767Z,19.12
2023-09-06T06:12:53.165Z,19.34
2023-09-06T06:15:21.838Z,19.26
2023-09-06T06:17:51.040Z,19.04
2023-09-06T07:36:29.571Z,22.76
2023-09-06T07:39:12.023Z,22.76
2023-09-06T07:48:57.894Z,22.88
2023-09-06T08:01:56.463Z,23.36
2023-09-06T08:14:49.229Z,23.59
2023-09-06T08:17:44.242Z,23.96
2023-09-06T08:26:49.486Z,24.27
2023-09-06T08:32:42.581Z,24.12
2023-09-06T08:52:02.250Z,24.96
2023-09-06T08:54:54.907Z,24.89
2023-09-06T09:24:53.374Z,25.69
2023-09-06T09:58:42.031Z,26.33
2023-09-06T10:04:29.887Z,26.44
2023-09-06T10:13:29.661Z,27.06
2023-09-06T10:25:28.581Z,27.94
2023-09-06T11:09:19.138Z,28.53
2023-09-06T11:51:07.797Z,28.87
2023-09-06T15:10:49.448Z,39.10
2023-09-06T16:38:18.908Z,30.34
2023-09-06T18:51:04.374Z,25.40
2023-09-06T18:53:47.804Z,25.31
2023-09-06T19:00:11.250Z,25.05
2023-09-06T19:03:04.706Z,24.91
2023-09-06T19:14:00.733Z,24.55
2023-09-06T19:16:33.329Z,23.88
2023-09-06T19:19:04.147Z,24.37
2023-09-06T19:21:33.806Z,24.07
2023-09-06T19:24:30.664Z,24.24
2023-09-06T19:27:23.875Z,24.20
2023-09-06T19:29:53.046Z,23.95
2023-09-06T19:32:26.909Z,23.83
2023-09-06T19:34:55.221Z,23.65
2023-09-06T19:37:27.497Z,23.58
2023-09-06T19:40:02.546Z,23.76
2023-09-06T19:42:53.165Z,23.65
2023-09-06T19:45:24.593Z,23.52
2023-09-06T19:47:56.137Z,23.51
2023-09-06T19:50:45.892Z,23.43
2023-09-06T19:53:19.604Z,23.46
2023-09-06T19:56:14.685Z,23.26
2023-09-06T19:58:48.213Z,23.35
2023-09-06T20:01:24.929Z,23.22
2023-09-06T20:03:54.937Z,23.07
2023-09-06T20:06:23.590Z,23.01
2023-09-06T20:08:53.533Z,23.11
2023-09-06T20:11:25.180Z,22.83
2023-09-06T20:13:53.665Z,22.62
2023-09-06T20:16:28.608Z,22.50
2023-09-06T20:19:01.079Z,22.56
2023-09-06T20:21:31.808Z,22.59
2023-09-06T20:24:02.399Z,22.59
2023-09-06T20:26:30.388Z,22.61
2023-09-06T20:29:10.316Z,22.49
2023-09-06T20:31:42.262Z,22.39
2023-09-06T20:34:14.322Z,22.34
2023-09-06T20:36:42.801Z,22.42
2023-09-06T20:39:16.032Z,22.36
2023-09-06T20:41:45.013Z,22.35
2023-09-06T20:44:13.709Z,22.37
2023-09-06T20:46:44.584Z,21.69
2023-09-06T20:49:35.592Z,22.37
2023-09-06T20:52:11.257Z,22.52
2023-09-06T20:54:40.256Z,22.45
2023-09-06T20:57:13.830Z,22.45
2023-09-06T20:59:44.682Z,21.80
2023-09-06T21:02:14.940Z,22.06
2023-09-06T21:04:44.510Z,21.75
2023-09-06T21:07:13.314Z,21.82
2023-09-06T21:09:45.510Z,21.93
2023-09-06T21:12:14.093Z,21.93
2023-09-06T21:15:03.033Z,21.75
2023-09-06T21:17:31.587Z,21.80
2023-09-06T21:20:04.469Z,21.74
2023-09-06T21:22:34.839Z,21.61
2023-09-06T21:25:03.547Z,21.51
2023-09-06T21:27:31.531Z,21.59
2023-09-06T21:30:01.539Z,21.49
2023-09-06T21:32:29.601Z,21.54
2023-09-06T21:34:58.928Z,21.63
2023-09-06T21:37:34.133Z,21.71
2023-09-06T21:40:06.836Z,21.63
2023-09-06T21:42:36.431Z,21.68
2023-09-06T21:45:09.027Z,21.64
2023-09-06T21:47:39.551Z,21.56
2023-09-06T21:50:09.703Z,21.47
2023-09-06T21:52:42.159Z,21.50
2023-09-06T21:55:18.898Z,21.45
2023-09-06T21:58:02.718Z,20.88
2023-09-06T22:00:38.550Z,21.31
2023-09-06T22:03:08.577Z,21.16
2023-09-06T22:05:39.851Z,21.18
2023-09-06T22:08:12.323Z,21.13
2023-09-06T22:10:45.559Z,20.91
2023-09-06T22:13:14.873Z,21.13
2023-09-06T22:15:50.965Z,21.07
2023-09-06T22:18:23.365Z,20.87
2023-09-06T22:20:52.606Z,20.91
2023-09-06T22:23:24.052Z,20.65
2023-09-06T22:26:02.721Z,20.17
2023-09-06T22:28:33.203Z,20.47
2023-09-06T22:31:04.151Z,20.33
2023-09-06T22:33:33.902Z,20.34
2023-09-06T22:36:03.020Z,19.99
2023-09-06T22:38:33.337Z,20.16
2023-09-06T22:41:03.145Z,20.11
2023-09-06T22:43:33.663Z,19.94
2023-09-06T22:46:04.957Z,20.33
2023-09-06T22:51:13.798Z,20.10
2023-09-06T22:53:44.638Z,20.07
2023-09-06T22:56:14.695Z,19.90
2023-09-06T22:58:43.369Z,20.14
2023-09-06T23:01:12.545Z,19.92
2023-09-06T23:03:46.002Z,19.95
2023-09-06T23:06:18.080Z,19.92
2023-09-06T23:08:48.850Z,19.90
2023-09-06T23:11:17.835Z,19.89
2023-09-06T23:13:46.102Z,19.31
2023-09-06T23:16:20.924Z,19.76
2023-09-06T23:18:50.447Z,19.70
2023-09-06T23:21:23.240Z,19.71
2023-09-06T23:24:09.434Z,19.39
2023-09-06T23:26:40.058Z,19.54
2023-09-06T23:29:11.716Z,19.35
2023-09-06T23:34:31.821Z,19.41
2023-09-06T23:37:06.930Z,19.30
2023-09-06T23:39:43.978Z,19.44
2023-09-06T23:42:14.292Z,19.04
2023-09-06T23:44:43.531Z,18.96
2023-09-06T23:47:15.768Z,19.32
2023-09-06T23:49:49.145Z,19.17
2023-09-06T23:52:20.881Z,19.05
2023-09-06T23:54:52.946Z,19.08
2023-09-06T23:57:22.357Z,19.25
2023-09-06T23:59:53.478Z,19.08
